Date,TemperatureHighF,TemperatureAvgF,TemperatureLowF,DewpointHighF,DewpointAvgF,DewpointLowF,HumidityHigh,HumidityAvg,HumidityLow,PressureMaxIn,PressureMinIn,WindSpeedMaxMPH,WindSpeedAvgMPH,GustSpeedMaxMPH,PrecipitationSumIn
2013-2-1,51.4,42.7,38.3,41.3,35.9,33.2,85,77,64,29.60,29.47,4,1,8,0.21
2013-2-2,48.6,41.2,35.6,35.0,29.2,23.9,84,63,48,30.23,29.61,6,3,11,0.00
2013-2-4,55.2,47.7,43.7,36.2,33.5,31.3,69,58,42,29.95,29.71,8,4,15,0.00
2013-2-5,48.2,40.9,35.8,36.2,29.6,23.4,82,65,39,29.71,29.34,8,4,16,0.25
2013-2-6,45.0,40.7,36.3,36.2,31.2,24.2,81,69,59,30.07,29.36,8,3,16,22.44
2013-2-7,45.3,37.8,33.3,33.0,27.9,22.7,81,67,52,30.10,29.99,4,2,8,0.01
2013-2-8,50.7,38.6,33.3,33.7,30.1,27.7,80,72,47,30.15,30.03,6,2,11,0.00
2013-2-9,39.9,37.7,35.1,34.0,31.4,27.1,85,78,69,30.15,29.86,4,0,7,0.03
2013-2-10,42.1,38.6,33.1,38.0,34.4,28.8,86,84,82,29.86,29.26,4,1,7,0.63
2013-2-11,36.5,34.4,33.3,31.7,29.7,29.0,84,83,81,29.78,29.28,4,1,9,0.23
2013-2-12,36.7,35.1,33.8,29.8,26.8,24.2,82,72,65,30.13,29.78,3,1,7,0.00
2013-2-13,40.6,35.9,33.8,36.5,27.0,20.8,86,70,53,30.20,29.97,5,1,9,0.02
2013-2-14,59.2,47.3,40.6,44.3,39.1,34.7,87,74,48,29.98,29.71,5,2,13,0.06
2013-2-15,61.2,43.3,37.2,40.0,34.0,30.9,84,71,42,30.20,29.98,4,1,8,0.00
2013-2-16,56.3,44.5,36.3,37.8,34.2,30.1,82,68,41,30.24,30.18,2,0,4,0.00
2013-2-17,63.1,40.4,30.0,39.1,31.5,25.4,87,73,32,30.21,30.09,2,0,5,0.00
2013-2-18,63.1,39.9,32.0,38.0,30.9,26.2,88,72,34,30.15,30.08,2,0,4,0.00
2013-2-19,66.0,38.4,27.5,41.0,29.4,21.6,86,72,34,30.13,30.05,2,0,4,23.42
2013-2-20,54.1,39.2,33.1,36.5,29.7,23.5,88,70,41,30.25,30.09,4,1,7,0.01
2013-2-21,38.1,35.2,33.1,23.4,19.8,16.7,60,53,45,30.25,30.15,4,1,9,0.00
2013-2-22,37.0,34.4,32.9,22.0,19.4,16.4,61,54,48,30.15,30.09,4,2,14,0.00
2013-2-23,50.5,34.7,32.7,42.9,22.2,18.2,75,60,48,30.20,29.84,5,2,10,23.43
2013-2-24,36.9,34.8,32.9,25.9,24.0,21.9,73,64,57,30.27,30.16,6,2,11,0.00
2013-2-25,40.6,38.1,34.5,33.4,30.7,23.6,79,74,64,30.37,30.22,6,3,12,0.37
2013-2-26,41.9,39.5,36.9,37.4,34.7,30.7,87,83,77,30.57,30.35,5,2,11,0.01
2013-2-27,52.5,39.4,36.0,34.9,31.6,28.0,85,74,49,30.57,30.48,5,2,10,0.00
2013-2-28,51.1,40.8,34.5,36.1,31.6,27.4,77,70,55,30.48,30.33,5,2,9,0.01